Weather reports worldwide

Advertisment
Northampton (Moulton Park), United Kingdom (99115): temperature & dewpoint: 18.06.2018 10:00:00 - 24.06.2018 10:00:00 (BST)Northampton (Moulton Park), United Kingdom (99115): temperature -100cm: 18.06.2018 10:00:00 - 24.06.2018 10:00:00 (BST)Northampton (Moulton Park), United Kingdom (99115): precipitation: 18.06.2018 10:00:00 - 24.06.2018 10:00:00 (BST)
Date & Time tt [°C] td [°C] tt -100cm [°C] rr [mm]
24.06.2018 10:00:00 17,9 11,4 - 0,0
24.06.2018 09:00:00 14,9 9,1 - 0,0
24.06.2018 08:00:00 12,2 7,5 - 0,0
24.06.2018 07:00:00 9,7 6,3 - 0,0
24.06.2018 06:00:00 9,3 6,0 - 0,0
24.06.2018 05:00:00 8,2 4,9 - 0,0
24.06.2018 04:00:00 9,0 5,1 - 0,0
24.06.2018 03:00:00 9,4 5,8 - 0,0
24.06.2018 02:00:00 10,2 5,8 - 0,0
24.06.2018 01:00:00 11,5 5,9 - 0,0
24.06.2018 00:00:00 12,3 5,8 - 0,0
23.06.2018 23:00:00 13,5 5,7 - 0,0
23.06.2018 22:00:00 15,3 7,0 - 0,0
23.06.2018 21:00:00 16,7 8,3 - 0,0
23.06.2018 20:00:00 18,0 8,1 - 0,0
23.06.2018 19:00:00 19,1 8,0 - 0,0
23.06.2018 18:00:00 19,6 9,0 - 0,0
23.06.2018 17:00:00 20,0 10,4 - 0,0
23.06.2018 16:00:00 20,0 10,3 - 0,0
23.06.2018 15:00:00 19,9 8,9 - 0,0
23.06.2018 14:00:00 20,7 10,4 - 0,0
23.06.2018 13:00:00 19,3 7,5 - 0,0
23.06.2018 12:00:00 19,6 5,3 - 0,0
23.06.2018 11:00:00 17,3 3,7 - 0,0
23.06.2018 10:00:00 17,1 7,8 13,5 0,0
23.06.2018 09:00:00 15,0 7,2 - 0,0
23.06.2018 08:00:00 12,7 8,3 - 0,0
23.06.2018 07:00:00 11,3 7,7 - 0,0
23.06.2018 06:00:00 10,0 7,2 - 0,0
23.06.2018 05:00:00 9,6 6,5 - 0,0
23.06.2018 04:00:00 10,3 6,3 - 0,0
23.06.2018 03:00:00 10,3 6,2 - 0,0
23.06.2018 02:00:00 11,2 5,7 - 0,0
23.06.2018 01:00:00 12,0 6,0 - 0,0
23.06.2018 00:00:00 12,8 6,3 - 0,0
22.06.2018 23:00:00 14,1 7,3 - 0,0
22.06.2018 22:00:00 16,4 3,3 - 0,0
22.06.2018 21:00:00 17,7 2,9 - 0,0
22.06.2018 20:00:00 18,7 4,0 - 0,0
22.06.2018 19:00:00 19,2 2,9 - 0,0
22.06.2018 18:00:00 19,5 4,9 - 0,0
22.06.2018 17:00:00 19,4 3,6 - 0,0
22.06.2018 16:00:00 20,1 4,7 - 0,0
22.06.2018 15:00:00 20,3 7,2 - 0,0
22.06.2018 14:00:00 19,1 6,9 - 0,0
22.06.2018 13:00:00 18,6 8,1 - 0,0
22.06.2018 12:00:00 17,6 7,2 - 0,0
22.06.2018 11:00:00 17,0 7,8 - 0,0
22.06.2018 10:00:00 15,7 7,9 13,5 0,0
22.06.2018 09:00:00 14,4 7,9 - 0,0
22.06.2018 08:00:00 12,8 8,6 - 0,0
22.06.2018 07:00:00 10,4 8,6 - 0,0
22.06.2018 06:00:00 8,3 7,6 - 0,0
22.06.2018 05:00:00 7,4 6,3 - 0,0
22.06.2018 04:00:00 8,4 7,0 - 0,0
22.06.2018 03:00:00 7,9 6,0 - 0,0
22.06.2018 02:00:00 8,9 5,9 - 0,0
22.06.2018 01:00:00 9,8 5,8 - 0,0
22.06.2018 00:00:00 10,5 5,7 - 0,0
21.06.2018 23:00:00 11,4 5,7 - 0,0
21.06.2018 22:00:00 12,6 5,3 - 0,0
21.06.2018 21:00:00 14,4 4,9 - 0,0
21.06.2018 20:00:00 16,0 4,4 - 0,0
21.06.2018 19:00:00 17,2 5,0 - 0,0
21.06.2018 18:00:00 18,0 5,0 - 0,0
21.06.2018 17:00:00 17,7 4,1 - 0,0
21.06.2018 16:00:00 18,2 3,4 - 0,0
21.06.2018 15:00:00 18,1 6,0 - 0,0
21.06.2018 14:00:00 17,3 5,6 - 0,0
21.06.2018 13:00:00 17,2 5,3 - 0,0
21.06.2018 12:00:00 16,5 4,9 - 0,0
21.06.2018 11:00:00 16,0 4,9 - 0,0
21.06.2018 10:00:00 15,1 6,9 13,5 0,0
21.06.2018 09:00:00 12,9 6,3 - 0,0
21.06.2018 08:00:00 11,5 5,7 - 0,0
21.06.2018 07:00:00 10,9 6,7 - 0,0
21.06.2018 06:00:00 9,3 6,3 - 0,0
21.06.2018 05:00:00 9,2 6,2 - 0,0
21.06.2018 04:00:00 9,4 6,5 - 0,0
21.06.2018 03:00:00 9,4 6,1 - 0,0
21.06.2018 02:00:00 10,3 6,0 - 0,0
21.06.2018 01:00:00 10,3 6,0 - 0,0
21.06.2018 00:00:00 11,2 6,0 - 0,0
20.06.2018 23:00:00 12,1 6,0 - 0,0
20.06.2018 22:00:00 13,2 7,7 - 0,0
20.06.2018 21:00:00 14,8 9,0 - 0,0
20.06.2018 20:00:00 16,4 10,0 - 0,0
20.06.2018 19:00:00 18,3 12,0 - 0,0
20.06.2018 18:00:00 20,3 13,6 - 0,0
20.06.2018 17:00:00 22,3 15,2 - 0,0
20.06.2018 16:00:00 21,0 15,3 - 0,0
20.06.2018 15:00:00 21,8 15,2 - 0,0
20.06.2018 14:00:00 20,9 15,4 - 0,0
20.06.2018 13:00:00 21,2 15,2 - 0,0
20.06.2018 12:00:00 21,0 15,1 - 0,0
20.06.2018 11:00:00 20,3 15,0 - 0,0
20.06.2018 10:00:00 19,7 15,1 13,4 0,0
20.06.2018 09:00:00 18,8 14,7 - 0,0
20.06.2018 08:00:00 17,7 14,6 - 0,0
20.06.2018 07:00:00 16,5 14,3 - 0,0
20.06.2018 06:00:00 16,0 14,3 - 0,0
20.06.2018 05:00:00 16,0 14,2 - 0,0
20.06.2018 04:00:00 15,9 14,4 - 0,0
20.06.2018 03:00:00 15,4 14,4 - 0,0
20.06.2018 02:00:00 15,5 14,3 - 0,0
20.06.2018 01:00:00 16,1 14,7 - 0,0
20.06.2018 00:00:00 17,2 15,1 - 0,0
19.06.2018 23:00:00 18,0 14,9 - 0,0
19.06.2018 22:00:00 18,8 15,0 - 0,0
19.06.2018 21:00:00 20,1 15,2 - 0,0
19.06.2018 20:00:00 20,9 15,3 - 0,0
19.06.2018 19:00:00 21,5 15,6 - 0,0
19.06.2018 18:00:00 21,7 15,4 - 0,0
19.06.2018 17:00:00 21,7 15,7 - 0,0
19.06.2018 16:00:00 22,2 15,5 - 0,0
19.06.2018 15:00:00 21,1 15,4 - 0,0
19.06.2018 14:00:00 20,8 15,0 - 0,0
19.06.2018 13:00:00 21,5 15,0 - 0,0
19.06.2018 12:00:00 20,1 14,2 - 0,0
19.06.2018 11:00:00 19,8 14,1 - 0,0
19.06.2018 10:00:00 18,5 13,8 13,4 0,0
19.06.2018 09:00:00 18,1 14,3 - 0,0
19.06.2018 08:00:00 17,8 14,1 - 0,0
19.06.2018 07:00:00 17,1 14,1 - 0,0
19.06.2018 06:00:00 15,9 13,6 - 0,0
19.06.2018 05:00:00 15,9 13,6 - 0,0
19.06.2018 04:00:00 16,2 13,7 - 0,0
19.06.2018 03:00:00 16,5 13,8 - 0,0
19.06.2018 02:00:00 16,8 13,8 - 0,0
19.06.2018 01:00:00 17,1 14,1 - 0,0
19.06.2018 00:00:00 17,2 14,4 - 0,0
18.06.2018 23:00:00 17,5 14,5 - 0,0
18.06.2018 22:00:00 18,1 14,9 - 0,0
18.06.2018 21:00:00 18,5 14,9 - 0,0
18.06.2018 20:00:00 19,0 14,6 - 0,0
18.06.2018 19:00:00 19,8 14,3 - 0,0
18.06.2018 18:00:00 20,7 13,9 - 0,0
18.06.2018 17:00:00 20,7 13,2 - 0,0
18.06.2018 16:00:00 21,2 12,7 - 0,0
18.06.2018 15:00:00 21,3 11,8 - 0,0
18.06.2018 14:00:00 22,5 12,0 - 0,0
18.06.2018 13:00:00 21,7 9,6 - 0,0
18.06.2018 12:00:00 20,9 11,1 - 0,0
18.06.2018 11:00:00 19,4 11,5 - 0,0
18.06.2018 10:00:00 17,4 11,7 13,2 0,0

tt = temperature
td = dewpoint
tt -100cm = temperature -100cm
rr = precipitation

Next stations